createdAt,value
2017-12-26T00:00:30.251Z,7.30
2017-12-26T00:02:57.747Z,7.40
2017-12-26T00:05:26.013Z,7.30
2017-12-26T00:07:54.013Z,7.20
2017-12-26T00:10:21.515Z,7.30
2017-12-26T00:12:49.003Z,7.40
2017-12-26T00:15:17.648Z,7.40
2017-12-26T00:17:45.560Z,7.30
2017-12-26T00:20:13.443Z,7.40
2017-12-26T00:22:41.520Z,7.50
2017-12-26T00:25:09.639Z,8.40
2017-12-26T00:27:37.661Z,8.60
2017-12-26T00:30:05.721Z,7.90
2017-12-26T00:32:33.206Z,7.80
2017-12-26T00:35:00.709Z,7.60
2017-12-26T00:37:28.368Z,7.50
2017-12-26T00:39:56.661Z,7.50
2017-12-26T00:42:24.240Z,7.60
2017-12-26T00:44:52.003Z,7.70
2017-12-26T00:47:19.496Z,7.60
2017-12-26T00:49:47.409Z,7.60
2017-12-26T00:52:14.951Z,7.50
2017-12-26T00:54:43.025Z,7.60
2017-12-26T00:57:10.533Z,7.90
2017-12-26T00:59:38.589Z,7.90
2017-12-26T01:02:06.939Z,7.70
2017-12-26T01:04:34.995Z,7.70
2017-12-26T01:07:02.795Z,7.60
2017-12-26T01:09:31.179Z,7.60
2017-12-26T01:11:58.682Z,7.40
2017-12-26T01:14:26.399Z,7.20
2017-12-26T01:16:54.107Z,7.20
2017-12-26T01:19:22.232Z,7.20
2017-12-26T01:21:50.306Z,7.20
2017-12-26T01:24:17.797Z,7.20
2017-12-26T01:26:45.292Z,7.20
2017-12-26T01:29:13.133Z,7.30
2017-12-26T01:31:42.176Z,7.20
2017-12-26T01:34:11.044Z,7.20
2017-12-26T01:36:38.732Z,7.10
2017-12-26T01:39:06.497Z,7.30
2017-12-26T01:41:34.000Z,7.40
2017-12-26T01:44:01.497Z,7.30
2017-12-26T01:46:29.016Z,7.10
2017-12-26T01:48:57.547Z,7.30
2017-12-26T01:51:25.040Z,7.50
2017-12-26T01:53:52.548Z,7.50
2017-12-26T01:56:21.182Z,7.50
2017-12-26T01:58:48.887Z,7.50
2017-12-26T02:01:17.775Z,7.40
2017-12-26T02:03:47.173Z,7.30
2017-12-26T02:06:14.963Z,7.30
2017-12-26T02:08:42.736Z,7.20
2017-12-26T02:11:10.227Z,7.10
2017-12-26T02:13:37.840Z,7.10
2017-12-26T02:16:05.771Z,7.10
2017-12-26T02:18:33.780Z,7.10
2017-12-26T02:21:01.547Z,7.20
2017-12-26T02:23:29.307Z,7.10
2017-12-26T02:25:57.075Z,7.10
2017-12-26T02:28:24.784Z,7.00
2017-12-26T02:30:52.271Z,7.20
2017-12-26T02:33:20.172Z,7.20
2017-12-26T02:35:47.684Z,7.80
2017-12-26T02:38:15.279Z,7.90
2017-12-26T02:40:43.039Z,8.10
2017-12-26T02:43:10.846Z,8.40
2017-12-26T02:45:38.300Z,8.70
2017-12-26T02:48:05.787Z,8.50
2017-12-26T02:50:34.298Z,8.50
2017-12-26T02:53:01.783Z,7.80
2017-12-26T02:55:29.315Z,7.40
2017-12-26T02:57:56.804Z,7.10
2017-12-26T03:00:24.511Z,7.20
2017-12-26T03:02:53.831Z,7.10
2017-12-26T03:05:22.823Z,7.00
2017-12-26T03:07:50.311Z,7.00
2017-12-26T03:10:19.373Z,6.80
2017-12-26T03:12:46.994Z,6.70
2017-12-26T03:15:14.491Z,6.70
2017-12-26T03:17:43.338Z,6.80
2017-12-26T03:20:11.866Z,6.90
2017-12-26T03:22:39.350Z,6.80
2017-12-26T03:25:06.851Z,6.70
2017-12-26T03:27:34.342Z,6.90
2017-12-26T03:30:01.975Z,6.70
2017-12-26T03:32:29.760Z,6.70
2017-12-26T03:34:57.256Z,6.80
2017-12-26T03:37:24.980Z,6.50
2017-12-26T03:39:52.898Z,6.50
2017-12-26T03:42:21.475Z,6.50
2017-12-26T03:44:49.172Z,6.60
2017-12-26T03:47:17.064Z,6.50
2017-12-26T03:49:44.684Z,6.50
2017-12-26T03:52:12.176Z,6.50
2017-12-26T03:54:40.036Z,6.60
2017-12-26T03:57:07.538Z,6.50
2017-12-26T03:59:35.803Z,6.70
2017-12-26T04:02:04.759Z,6.60
2017-12-26T04:04:32.236Z,6.50
2017-12-26T04:06:59.872Z,6.40
2017-12-26T04:09:27.771Z,6.30
2017-12-26T04:11:56.159Z,6.30
2017-12-26T04:14:23.653Z,6.40
2017-12-26T04:16:51.971Z,6.40
2017-12-26T04:19:19.728Z,6.30
2017-12-26T04:21:47.486Z,6.30
2017-12-26T04:24:15.519Z,6.30
2017-12-26T04:26:43.339Z,6.20
2017-12-26T04:29:10.840Z,6.20
2017-12-26T04:31:38.329Z,6.10
2017-12-26T04:34:07.228Z,6.10
2017-12-26T04:36:34.996Z,6.10
2017-12-26T04:39:03.053Z,6.20
2017-12-26T04:41:30.756Z,6.10
2017-12-26T04:43:58.282Z,6.00
2017-12-26T04:46:25.781Z,5.90
2017-12-26T04:48:53.386Z,5.90
2017-12-26T04:51:21.655Z,6.00
2017-12-26T04:53:49.659Z,6.00
2017-12-26T04:56:17.419Z,6.00
2017-12-26T04:58:44.915Z,6.10
2017-12-26T05:01:12.589Z,5.90
2017-12-26T05:03:41.311Z,5.90
2017-12-26T05:06:09.039Z,6.00
2017-12-26T05:08:37.147Z,5.70
2017-12-26T05:11:04.646Z,5.80
2017-12-26T05:13:33.291Z,5.90
2017-12-26T05:16:00.775Z,5.90
2017-12-26T05:18:28.287Z,5.70
2017-12-26T05:20:55.970Z,5.70
2017-12-26T05:23:23.464Z,5.80
2017-12-26T05:25:51.223Z,5.90
2017-12-26T05:28:18.708Z,5.90
2017-12-26T05:30:46.408Z,5.90
2017-12-26T05:33:14.304Z,5.90
2017-12-26T05:35:42.211Z,6.00
2017-12-26T05:38:09.719Z,5.90
2017-12-26T05:40:37.220Z,5.90
2017-12-26T05:43:04.893Z,5.90
2017-12-26T05:45:32.375Z,5.90
2017-12-26T05:47:59.886Z,5.90
2017-12-26T05:50:28.823Z,5.90
2017-12-26T05:52:56.468Z,5.80
2017-12-26T05:55:24.967Z,5.70
2017-12-26T05:57:52.735Z,5.60
2017-12-26T06:00:21.383Z,5.70
2017-12-26T06:02:50.195Z,5.80
2017-12-26T06:05:17.867Z,5.60
2017-12-26T06:07:46.550Z,5.60
2017-12-26T06:10:14.620Z,5.60
2017-12-26T06:12:42.116Z,5.60
2017-12-26T06:15:10.025Z,5.60
2017-12-26T06:17:37.603Z,5.60
2017-12-26T06:20:06.070Z,5.50
2017-12-26T06:22:33.723Z,5.60
2017-12-26T06:25:01.253Z,5.60
2017-12-26T06:27:29.951Z,5.60
2017-12-26T06:29:57.443Z,5.70
2017-12-26T06:32:25.409Z,5.60
2017-12-26T06:34:52.901Z,5.60
2017-12-26T06:37:20.391Z,5.60
2017-12-26T06:39:48.067Z,5.50
2017-12-26T06:42:15.563Z,5.50
2017-12-26T06:44:43.271Z,5.50
2017-12-26T06:47:10.767Z,5.50
2017-12-26T06:49:38.302Z,5.60
2017-12-26T06:52:05.784Z,5.70
2017-12-26T06:54:33.427Z,5.70
2017-12-26T06:57:01.615Z,5.60
2017-12-26T06:59:29.380Z,5.70
2017-12-26T07:01:57.007Z,5.70
2017-12-26T07:04:24.511Z,5.70
2017-12-26T07:06:52.254Z,5.90
2017-12-26T07:09:19.747Z,5.80
2017-12-26T07:11:47.254Z,6.00
2017-12-26T07:14:16.043Z,5.90
2017-12-26T07:16:44.287Z,6.00
2017-12-26T07:19:11.783Z,6.10
2017-12-26T07:21:45.271Z,6.10
2017-12-26T07:24:12.759Z,6.20
2017-12-26T07:26:41.139Z,6.20
2017-12-26T07:29:08.631Z,6.30
2017-12-26T07:31:36.322Z,6.30
2017-12-26T07:34:04.111Z,6.40
2017-12-26T07:36:32.058Z,6.40
2017-12-26T07:38:59.943Z,6.50
2017-12-26T07:41:27.991Z,6.20
2017-12-26T07:43:55.778Z,6.70
2017-12-26T07:46:23.674Z,7.60
2017-12-26T07:48:51.691Z,7.90
2017-12-26T07:51:19.357Z,8.10
2017-12-26T07:53:47.059Z,8.50
2017-12-26T07:56:15.296Z,8.40
2017-12-26T07:58:42.943Z,8.60
2017-12-26T08:01:11.355Z,8.50
2017-12-26T08:03:38.850Z,9.00
2017-12-26T08:06:06.879Z,7.80
2017-12-26T08:08:34.378Z,7.40
2017-12-26T08:11:01.875Z,7.20
2017-12-26T08:13:29.560Z,7.10
2017-12-26T08:15:57.055Z,7.00
2017-12-26T08:18:25.443Z,6.90
2017-12-26T08:20:53.431Z,6.90
2017-12-26T08:23:21.547Z,7.00
2017-12-26T08:25:49.468Z,7.00
2017-12-26T08:28:18.599Z,7.00
2017-12-26T08:30:46.362Z,7.00
2017-12-26T08:33:13.864Z,7.10
2017-12-26T08:35:41.360Z,7.10
2017-12-26T08:38:08.859Z,7.20
2017-12-26T08:40:36.461Z,7.20
2017-12-26T08:43:04.076Z,7.20
2017-12-26T08:45:31.718Z,7.30
2017-12-26T08:47:59.354Z,7.30
2017-12-26T08:50:26.827Z,7.30
2017-12-26T08:52:55.312Z,7.30
2017-12-26T08:55:22.808Z,7.40
2017-12-26T08:57:50.419Z,7.40
2017-12-26T09:00:18.081Z,7.40
2017-12-26T09:02:45.763Z,7.40
2017-12-26T09:05:13.259Z,7.40
2017-12-26T09:07:40.760Z,7.40
2017-12-26T09:10:08.468Z,7.40
2017-12-26T09:12:36.356Z,7.40
2017-12-26T09:15:03.855Z,7.50
2017-12-26T09:17:31.372Z,7.50
2017-12-26T09:19:58.871Z,7.40
2017-12-26T09:22:28.172Z,7.40
2017-12-26T09:24:56.074Z,7.40
2017-12-26T09:27:23.696Z,7.40
2017-12-26T09:29:51.198Z,7.40
2017-12-26T09:32:19.956Z,7.30
2017-12-26T09:34:48.215Z,7.30
2017-12-26T09:37:15.975Z,7.40
2017-12-26T09:39:44.052Z,7.70
2017-12-26T09:42:11.545Z,7.70
2017-12-26T09:44:39.193Z,7.50
2017-12-26T09:47:07.069Z,7.40
2017-12-26T09:49:35.083Z,7.50
2017-12-26T09:52:02.625Z,7.50
2017-12-26T09:54:30.124Z,7.50
2017-12-26T09:56:57.757Z,7.80
2017-12-26T09:59:25.259Z,7.60
2017-12-26T10:01:52.998Z,7.50
2017-12-26T10:04:20.503Z,7.50
2017-12-26T10:06:48.163Z,7.50
2017-12-26T10:09:16.951Z,7.50
2017-12-26T10:11:44.547Z,7.40
2017-12-26T10:14:12.823Z,7.40
2017-12-26T10:16:40.431Z,7.40
2017-12-26T10:19:08.320Z,7.40
2017-12-26T10:21:35.819Z,7.40
2017-12-26T10:24:04.711Z,7.30
2017-12-26T10:26:32.216Z,7.20
2017-12-26T10:28:59.771Z,7.20
2017-12-26T10:31:27.700Z,7.20
2017-12-26T10:33:55.200Z,7.20
2017-12-26T10:36:22.920Z,7.10
2017-12-26T10:38:50.468Z,7.10
2017-12-26T10:41:18.631Z,7.10
2017-12-26T10:43:46.217Z,7.10
2017-12-26T10:46:13.976Z,7.10
2017-12-26T10:48:42.191Z,7.00
2017-12-26T10:51:10.728Z,7.00
2017-12-26T10:53:38.500Z,7.00
2017-12-26T10:56:06.001Z,7.00
2017-12-26T10:58:33.688Z,7.00
2017-12-26T11:01:01.762Z,7.00
2017-12-26T11:03:29.680Z,7.00
2017-12-26T11:05:57.175Z,7.00
2017-12-26T11:08:25.339Z,7.10
2017-12-26T11:10:52.836Z,7.10
2017-12-26T11:13:20.480Z,7.10
2017-12-26T11:15:48.060Z,7.00
2017-12-26T11:18:15.824Z,7.00
2017-12-26T11:20:43.592Z,7.00
2017-12-26T11:23:11.098Z,7.10
2017-12-26T11:25:38.604Z,7.10
2017-12-26T11:28:06.241Z,7.10
2017-12-26T11:30:33.732Z,7.10
2017-12-26T11:33:01.640Z,7.10
2017-12-26T11:35:31.005Z,7.00
2017-12-26T11:37:58.562Z,7.00
2017-12-26T11:40:27.237Z,7.10
2017-12-26T11:42:55.000Z,7.00
2017-12-26T11:45:23.028Z,7.00
2017-12-26T11:47:51.141Z,7.00
2017-12-26T11:50:18.905Z,7.00
2017-12-26T11:52:46.664Z,7.00
2017-12-26T11:55:14.451Z,6.90
2017-12-26T11:57:42.501Z,7.00
2017-12-26T12:00:10.154Z,6.90
2017-12-26T12:02:37.733Z,7.00
2017-12-26T12:05:06.574Z,7.00
2017-12-26T12:07:34.822Z,7.00
2017-12-26T12:10:03.084Z,7.00
2017-12-26T12:12:30.593Z,7.10
2017-12-26T12:14:58.380Z,7.10
2017-12-26T12:17:26.156Z,7.00
2017-12-26T12:19:53.652Z,6.90
2017-12-26T12:22:21.968Z,7.00
2017-12-26T12:24:49.740Z,7.00
2017-12-26T12:27:17.472Z,7.00
2017-12-26T12:29:45.015Z,7.00
2017-12-26T12:32:12.724Z,7.00
2017-12-26T12:34:40.232Z,7.00
2017-12-26T12:37:08.127Z,7.00
2017-12-26T12:39:36.216Z,7.00
2017-12-26T12:42:04.449Z,6.90
2017-12-26T12:44:32.156Z,6.90
2017-12-26T12:47:00.256Z,7.00
2017-12-26T12:49:27.740Z,7.00
2017-12-26T12:51:56.185Z,7.00
2017-12-26T12:54:23.837Z,7.10
2017-12-26T12:56:51.897Z,6.90
2017-12-26T12:59:20.280Z,6.70
2017-12-26T13:01:47.784Z,6.60
2017-12-26T13:04:15.500Z,6.80
2017-12-26T13:06:43.265Z,7.40
2017-12-26T13:09:10.764Z,7.80
2017-12-26T13:11:38.457Z,7.70
2017-12-26T13:14:06.245Z,7.50
2017-12-26T13:16:33.968Z,7.40
2017-12-26T13:19:01.461Z,7.40
2017-12-26T13:21:28.962Z,7.40
2017-12-26T13:23:56.864Z,7.00
2017-12-26T13:26:24.441Z,6.70
2017-12-26T13:28:52.456Z,6.60
2017-12-26T13:31:20.784Z,6.50
2017-12-26T13:33:48.329Z,6.40
2017-12-26T13:36:16.111Z,6.50
2017-12-26T13:38:44.009Z,6.50
2017-12-26T13:41:11.518Z,6.60
2017-12-26T13:43:40.542Z,6.60
2017-12-26T13:46:08.439Z,6.70
2017-12-26T13:48:36.468Z,6.70
2017-12-26T13:51:04.248Z,6.70
2017-12-26T13:53:32.299Z,6.80
2017-12-26T13:55:59.801Z,6.80
2017-12-26T13:58:27.299Z,6.80
2017-12-26T14:00:54.801Z,6.80
2017-12-26T14:03:23.130Z,6.80
2017-12-26T14:05:50.619Z,6.80
2017-12-26T14:08:18.235Z,6.80
2017-12-26T14:10:46.031Z,6.80
2017-12-26T14:13:13.551Z,6.80
2017-12-26T14:15:41.212Z,6.80
2017-12-26T14:18:08.715Z,6.80
2017-12-26T14:20:36.220Z,6.80
2017-12-26T14:23:03.702Z,6.80
2017-12-26T14:25:32.611Z,6.80
2017-12-26T14:28:00.110Z,6.90
2017-12-26T14:30:28.115Z,6.90
2017-12-26T14:32:55.596Z,6.80
2017-12-26T14:35:23.364Z,6.80
2017-12-26T14:37:52.143Z,6.70
2017-12-26T14:40:19.647Z,6.70
2017-12-26T14:42:47.911Z,6.70
2017-12-26T14:45:15.418Z,6.60
2017-12-26T14:47:43.524Z,6.60
2017-12-26T14:50:12.700Z,6.60
2017-12-26T14:52:40.991Z,6.60
2017-12-26T14:55:08.481Z,6.50
2017-12-26T14:57:36.367Z,6.50
2017-12-26T15:00:04.067Z,6.50
2017-12-26T15:02:31.563Z,6.50
2017-12-26T15:05:00.036Z,6.50
2017-12-26T15:07:27.528Z,6.50
2017-12-26T15:09:55.102Z,6.50
2017-12-26T15:12:23.151Z,6.40
2017-12-26T15:14:50.651Z,6.50
2017-12-26T15:17:18.152Z,6.50
2017-12-26T15:19:45.696Z,6.40
2017-12-26T15:22:13.965Z,6.30
2017-12-26T15:24:41.463Z,6.30
2017-12-26T15:27:08.968Z,6.30
2017-12-26T15:29:36.522Z,6.30
2017-12-26T15:32:04.772Z,6.30
2017-12-26T15:34:32.292Z,6.30
2017-12-26T15:37:00.566Z,6.30
2017-12-26T15:39:28.262Z,6.20
2017-12-26T15:41:55.931Z,6.10
2017-12-26T15:44:23.420Z,6.10
2017-12-26T15:46:50.967Z,6.00
2017-12-26T15:49:18.465Z,6.00
2017-12-26T15:51:46.179Z,6.00
2017-12-26T15:54:14.119Z,6.00
2017-12-26T15:56:41.610Z,6.00
2017-12-26T15:59:09.191Z,6.00
2017-12-26T16:01:36.700Z,6.00
2017-12-26T16:04:04.348Z,6.00
2017-12-26T16:06:31.843Z,6.00
2017-12-26T16:09:00.144Z,5.90
2017-12-26T16:11:27.639Z,5.90
2017-12-26T16:13:55.144Z,5.90
2017-12-26T16:16:22.885Z,6.60
2017-12-26T16:18:50.375Z,7.40
2017-12-26T16:21:18.637Z,7.60
2017-12-26T16:23:46.194Z,7.20
2017-12-26T16:26:13.968Z,6.20
2017-12-26T16:28:41.489Z,6.10
2017-12-26T16:31:09.787Z,6.20
2017-12-26T16:33:37.552Z,6.20
2017-12-26T16:36:05.084Z,6.10
2017-12-26T16:38:32.776Z,6.20
2017-12-26T16:41:00.375Z,6.10
2017-12-26T16:43:29.594Z,6.00
2017-12-26T16:45:57.559Z,6.00
2017-12-26T16:48:25.055Z,6.00
2017-12-26T16:50:52.552Z,6.00
2017-12-26T16:53:20.461Z,6.00
2017-12-26T16:55:49.379Z,6.00
2017-12-26T16:58:17.660Z,6.00
2017-12-26T17:00:45.159Z,6.00
2017-12-26T17:03:12.823Z,6.00
2017-12-26T17:05:41.086Z,6.10
2017-12-26T17:08:08.984Z,6.00
2017-12-26T17:10:37.039Z,6.10
2017-12-26T17:13:05.147Z,6.10
2017-12-26T17:15:32.660Z,6.10
2017-12-26T17:18:01.288Z,6.10
2017-12-26T17:20:29.055Z,6.10
2017-12-26T17:22:57.066Z,6.10
2017-12-26T17:25:24.581Z,6.20
2017-12-26T17:27:52.080Z,6.10
2017-12-26T17:30:20.412Z,6.20
2017-12-26T17:32:48.186Z,6.30
2017-12-26T17:35:16.279Z,7.50
2017-12-26T17:37:43.767Z,8.30
2017-12-26T17:40:11.427Z,8.40
2017-12-26T17:42:39.852Z,8.30
2017-12-26T17:45:07.612Z,8.60
2017-12-26T17:47:35.111Z,8.40
2017-12-26T17:50:02.622Z,8.10
2017-12-26T17:52:30.125Z,8.20
2017-12-26T17:54:58.663Z,8.00
2017-12-26T17:57:26.735Z,7.20
2017-12-26T17:59:54.236Z,6.90
2017-12-26T18:02:21.934Z,6.60
2017-12-26T18:04:49.494Z,6.50
2017-12-26T18:07:18.499Z,6.40
2017-12-26T18:09:46.776Z,6.40
2017-12-26T18:12:15.051Z,6.30
2017-12-26T18:14:43.107Z,6.30
2017-12-26T18:17:10.790Z,6.30
2017-12-26T18:19:38.451Z,6.30
2017-12-26T18:22:06.321Z,6.20
2017-12-26T18:24:34.004Z,6.30
2017-12-26T18:27:01.743Z,6.30
2017-12-26T18:29:29.346Z,6.20
2017-12-26T18:31:57.632Z,6.20
2017-12-26T18:34:26.202Z,6.20
2017-12-26T18:36:54.598Z,6.20
2017-12-26T18:39:22.894Z,6.20
2017-12-26T18:41:50.474Z,6.20
2017-12-26T18:44:17.974Z,6.20
2017-12-26T18:46:45.472Z,6.30
2017-12-26T18:49:12.968Z,6.20
2017-12-26T18:51:41.264Z,6.20
2017-12-26T18:54:09.168Z,6.30
2017-12-26T18:56:36.659Z,6.10
2017-12-26T18:59:05.086Z,6.10
2017-12-26T19:01:33.158Z,6.10
2017-12-26T19:04:01.162Z,6.10
2017-12-26T19:06:28.711Z,6.00
2017-12-26T19:08:57.094Z,5.90
2017-12-26T19:11:25.471Z,6.00
2017-12-26T19:13:52.982Z,5.90
2017-12-26T19:16:20.669Z,5.90
2017-12-26T19:18:48.158Z,5.90
2017-12-26T19:21:15.694Z,5.90
2017-12-26T19:23:43.183Z,5.80
2017-12-26T19:26:11.901Z,5.80
2017-12-26T19:28:40.442Z,5.70
2017-12-26T19:31:07.940Z,5.70
2017-12-26T19:33:35.434Z,5.70
2017-12-26T19:36:03.114Z,5.70
2017-12-26T19:38:30.882Z,5.60
2017-12-26T19:40:59.233Z,5.60
2017-12-26T19:43:27.097Z,5.70
2017-12-26T19:45:55.671Z,5.70
2017-12-26T19:48:23.738Z,5.70
2017-12-26T19:50:51.727Z,5.80
2017-12-26T19:53:19.286Z,5.80
2017-12-26T19:55:47.071Z,5.80
2017-12-26T19:58:15.363Z,5.70
2017-12-26T20:00:42.903Z,5.70
2017-12-26T20:03:10.773Z,5.60
2017-12-26T20:05:39.979Z,5.60
2017-12-26T20:08:07.916Z,5.60
2017-12-26T20:10:35.815Z,5.50
2017-12-26T20:13:03.851Z,5.60
2017-12-26T20:15:31.634Z,5.50
2017-12-26T20:17:59.140Z,5.50
2017-12-26T20:20:27.170Z,5.50
2017-12-26T20:22:55.319Z,5.50
2017-12-26T20:25:23.000Z,5.50
2017-12-26T20:27:50.507Z,5.50
2017-12-26T20:30:18.118Z,5.40
2017-12-26T20:32:45.639Z,5.40
2017-12-26T20:35:13.418Z,5.40
2017-12-26T20:37:40.920Z,5.40
2017-12-26T20:40:09.235Z,5.30
2017-12-26T20:42:37.204Z,5.40
2017-12-26T20:45:05.447Z,5.40
2017-12-26T20:47:33.191Z,5.50
2017-12-26T20:50:00.747Z,5.50
2017-12-26T20:52:28.243Z,5.40
2017-12-26T20:54:57.043Z,5.50
2017-12-26T20:57:25.160Z,5.50
2017-12-26T20:59:53.223Z,5.40
2017-12-26T21:02:21.278Z,5.40
2017-12-26T21:04:50.360Z,5.30
2017-12-26T21:07:17.853Z,5.30
2017-12-26T21:09:45.507Z,5.30
2017-12-26T21:12:14.124Z,5.20
2017-12-26T21:14:42.383Z,5.30
2017-12-26T21:17:10.296Z,5.30
2017-12-26T21:19:37.787Z,5.20
2017-12-26T21:22:05.285Z,5.20
2017-12-26T21:24:32.785Z,5.20
2017-12-26T21:27:00.283Z,5.20
2017-12-26T21:29:27.882Z,5.20
2017-12-26T21:31:55.959Z,5.30
2017-12-26T21:34:23.459Z,5.30
2017-12-26T21:36:50.954Z,5.30
2017-12-26T21:39:18.682Z,5.30
2017-12-26T21:41:46.166Z,5.30
2017-12-26T21:44:13.788Z,5.30
2017-12-26T21:46:41.293Z,5.30
2017-12-26T21:49:09.568Z,5.20
2017-12-26T21:51:37.820Z,5.20
2017-12-26T21:54:05.315Z,5.20
2017-12-26T21:56:32.817Z,5.30
2017-12-26T21:59:01.401Z,5.30
2017-12-26T22:01:28.894Z,5.30
2017-12-26T22:03:56.691Z,5.20
2017-12-26T22:06:24.204Z,5.30
2017-12-26T22:08:52.396Z,5.20
2017-12-26T22:11:19.906Z,5.20
2017-12-26T22:13:47.862Z,5.20
2017-12-26T22:16:15.411Z,5.20
2017-12-26T22:18:43.530Z,5.20
2017-12-26T22:21:11.522Z,5.20
2017-12-26T22:23:39.269Z,5.30
2017-12-26T22:26:06.762Z,5.20
2017-12-26T22:28:35.069Z,5.20
2017-12-26T22:31:02.627Z,5.20
2017-12-26T22:33:30.391Z,5.20
2017-12-26T22:35:58.510Z,5.20
2017-12-26T22:38:25.988Z,5.20
2017-12-26T22:40:53.661Z,5.20
2017-12-26T22:43:21.715Z,5.20
2017-12-26T22:45:49.619Z,5.20
2017-12-26T22:48:17.115Z,5.20
2017-12-26T22:50:44.718Z,5.20
2017-12-26T22:53:12.202Z,5.10
2017-12-26T22:55:39.703Z,5.20
2017-12-26T22:58:07.416Z,5.10
2017-12-26T23:00:34.905Z,5.20
2017-12-26T23:03:02.714Z,5.20
2017-12-26T23:05:30.203Z,5.20
2017-12-26T23:07:57.704Z,5.30
2017-12-26T23:10:25.958Z,5.40
2017-12-26T23:12:53.688Z,5.40
2017-12-26T23:15:27.313Z,5.30
2017-12-26T23:18:00.530Z,5.30
2017-12-26T23:20:33.816Z,5.30
2017-12-26T23:23:07.146Z,5.20
2017-12-26T23:25:40.407Z,5.30
2017-12-26T23:28:13.544Z,5.30
2017-12-26T23:30:47.243Z,5.30
2017-12-26T23:33:20.406Z,5.30
2017-12-26T23:35:53.985Z,5.30
2017-12-26T23:38:27.627Z,5.30
2017-12-26T23:41:01.031Z,5.30
2017-12-26T23:43:34.107Z,5.20
2017-12-26T23:46:07.435Z,5.30
2017-12-26T23:48:40.631Z,5.40
2017-12-26T23:51:24.872Z,5.30
2017-12-26T23:54:00.080Z,5.30
2017-12-26T23:56:33.859Z,5.20
2017-12-26T23:59:07.781Z,5.20
